sensor_id;sensor_type;location;lat;lon;timestamp;temperature;humidity
820;DHT22;392;48.838;2.322;2024-02-04T00:02:00;11.50;63.20
820;DHT22;392;48.838;2.322;2024-02-04T00:04:28;11.50;63.00
820;DHT22;392;48.838;2.322;2024-02-04T00:06:58;11.50;63.50
820;DHT22;392;48.838;2.322;2024-02-04T00:09:25;11.50;62.80
820;DHT22;392;48.838;2.322;2024-02-04T00:11:54;11.50;63.30
820;DHT22;392;48.838;2.322;2024-02-04T00:14:22;11.50;62.40
820;DHT22;392;48.838;2.322;2024-02-04T00:16:50;11.50;62.30
820;DHT22;392;48.838;2.322;2024-02-04T00:19:17;11.50;62.10
820;DHT22;392;48.838;2.322;2024-02-04T00:21:44;11.50;62.00
820;DHT22;392;48.838;2.322;2024-02-04T00:24:11;11.50;62.00
820;DHT22;392;48.838;2.322;2024-02-04T00:26:38;11.50;62.00
820;DHT22;392;48.838;2.322;2024-02-04T00:29:05;11.50;62.00
820;DHT22;392;48.838;2.322;2024-02-04T00:31:34;11.50;61.90
820;DHT22;392;48.838;2.322;2024-02-04T00:34:01;11.60;61.70
820;DHT22;392;48.838;2.322;2024-02-04T00:36:28;11.60;61.40
820;DHT22;392;48.838;2.322;2024-02-04T00:38:56;11.60;61.10
820;DHT22;392;48.838;2.322;2024-02-04T00:41:23;11.60;60.90
820;DHT22;392;48.838;2.322;2024-02-04T00:43:50;11.60;60.30
820;DHT22;392;48.838;2.322;2024-02-04T00:46:18;11.70;60.70
820;DHT22;392;48.838;2.322;2024-02-04T00:48:47;11.70;59.90
820;DHT22;392;48.838;2.322;2024-02-04T00:51:14;11.70;59.90
820;DHT22;392;48.838;2.322;2024-02-04T00:53:42;11.70;59.70
820;DHT22;392;48.838;2.322;2024-02-04T00:56:10;11.70;58.90
820;DHT22;392;48.838;2.322;2024-02-04T00:58:38;11.70;58.70
820;DHT22;392;48.838;2.322;2024-02-04T01:01:05;11.70;58.70
820;DHT22;392;48.838;2.322;2024-02-04T01:03:32;11.70;58.50
820;DHT22;392;48.838;2.322;2024-02-04T01:06:01;11.70;58.10
820;DHT22;392;48.838;2.322;2024-02-04T01:08:28;11.70;57.60
820;DHT22;392;48.838;2.322;2024-02-04T01:10:55;11.70;57.50
820;DHT22;392;48.838;2.322;2024-02-04T01:13:23;11.70;57.90
820;DHT22;392;48.838;2.322;2024-02-04T01:15:50;11.70;57.30
820;DHT22;392;48.838;2.322;2024-02-04T01:18:17;11.70;57.00
820;DHT22;392;48.838;2.322;2024-02-04T01:20:44;11.70;57.10
820;DHT22;392;48.838;2.322;2024-02-04T01:23:13;11.70;57.20
820;DHT22;392;48.838;2.322;2024-02-04T01:25:43;11.70;57.00
820;DHT22;392;48.838;2.322;2024-02-04T01:28:10;11.70;57.50
820;DHT22;392;48.838;2.322;2024-02-04T01:30:37;11.70;57.60
820;DHT22;392;48.838;2.322;2024-02-04T01:33:04;11.70;57.40
820;DHT22;392;48.838;2.322;2024-02-04T01:35:33;11.70;57.40
820;DHT22;392;48.838;2.322;2024-02-04T01:38:00;11.70;57.30
820;DHT22;392;48.838;2.322;2024-02-04T01:40:29;11.70;57.60
820;DHT22;392;48.838;2.322;2024-02-04T01:42:56;11.70;58.60
820;DHT22;392;48.838;2.322;2024-02-04T01:45:23;11.70;58.80
820;DHT22;392;48.838;2.322;2024-02-04T01:47:51;11.70;58.90
820;DHT22;392;48.838;2.322;2024-02-04T01:50:20;11.70;59.60
820;DHT22;392;48.838;2.322;2024-02-04T01:52:47;11.70;59.90
820;DHT22;392;48.838;2.322;2024-02-04T01:55:15;11.70;59.90
820;DHT22;392;48.838;2.322;2024-02-04T01:57:46;11.60;60.10
820;DHT22;392;48.838;2.322;2024-02-04T02:00:14;11.60;60.50
820;DHT22;392;48.838;2.322;2024-02-04T02:02:46;11.60;60.90
820;DHT22;392;48.838;2.322;2024-02-04T02:05:14;11.60;61.30
820;DHT22;392;48.838;2.322;2024-02-04T02:07:41;11.50;61.40
820;DHT22;392;48.838;2.322;2024-02-04T02:10:12;11.50;61.70
820;DHT22;392;48.838;2.322;2024-02-04T02:12:42;11.50;61.70
820;DHT22;392;48.838;2.322;2024-02-04T02:15:20;11.50;61.70
820;DHT22;392;48.838;2.322;2024-02-04T02:17:53;11.50;61.80
820;DHT22;392;48.838;2.322;2024-02-04T02:20:29;11.50;61.80
820;DHT22;392;48.838;2.322;2024-02-04T02:23:06;11.50;61.70
820;DHT22;392;48.838;2.322;2024-02-04T02:25:36;11.40;61.80
820;DHT22;392;48.838;2.322;2024-02-04T02:28:05;11.50;62.00
820;DHT22;392;48.838;2.322;2024-02-04T02:30:32;11.40;62.00
820;DHT22;392;48.838;2.322;2024-02-04T02:32:59;11.40;62.30
820;DHT22;392;48.838;2.322;2024-02-04T02:35:27;11.40;62.40
820;DHT22;392;48.838;2.322;2024-02-04T02:37:59;11.50;62.60
820;DHT22;392;48.838;2.322;2024-02-04T02:40:38;11.50;62.80
820;DHT22;392;48.838;2.322;2024-02-04T02:43:09;11.50;62.60
820;DHT22;392;48.838;2.322;2024-02-04T02:45:38;11.50;62.50
820;DHT22;392;48.838;2.322;2024-02-04T02:48:07;11.50;62.20
820;DHT22;392;48.838;2.322;2024-02-04T02:50:35;11.50;62.10
820;DHT22;392;48.838;2.322;2024-02-04T02:53:03;11.50;62.10
820;DHT22;392;48.838;2.322;2024-02-04T02:55:30;11.50;62.00
820;DHT22;392;48.838;2.322;2024-02-04T02:57:58;11.60;62.10
820;DHT22;392;48.838;2.322;2024-02-04T03:00:25;11.60;62.80
820;DHT22;392;48.838;2.322;2024-02-04T03:02:52;11.60;62.70
820;DHT22;392;48.838;2.322;2024-02-04T03:05:19;11.60;62.60
820;DHT22;392;48.838;2.322;2024-02-04T03:07:47;11.60;62.50
820;DHT22;392;48.838;2.322;2024-02-04T03:10:14;11.50;62.60
820;DHT22;392;48.838;2.322;2024-02-04T03:12:41;11.50;62.90
820;DHT22;392;48.838;2.322;2024-02-04T03:15:10;11.50;63.00
820;DHT22;392;48.838;2.322;2024-02-04T03:17:37;11.40;63.60
820;DHT22;392;48.838;2.322;2024-02-04T03:20:05;11.40;64.20
820;DHT22;392;48.838;2.322;2024-02-04T03:22:33;11.40;64.50
820;DHT22;392;48.838;2.322;2024-02-04T03:25:01;11.40;65.20
820;DHT22;392;48.838;2.322;2024-02-04T03:27:29;11.40;65.80
820;DHT22;392;48.838;2.322;2024-02-04T03:29:56;11.40;66.20
820;DHT22;392;48.838;2.322;2024-02-04T03:32:24;11.40;66.30
820;DHT22;392;48.838;2.322;2024-02-04T03:34:52;11.30;66.80
820;DHT22;392;48.838;2.322;2024-02-04T03:37:19;11.40;67.20
820;DHT22;392;48.838;2.322;2024-02-04T03:39:46;11.40;67.40
820;DHT22;392;48.838;2.322;2024-02-04T03:42:13;11.30;67.70
820;DHT22;392;48.838;2.322;2024-02-04T03:44:41;11.30;68.10
820;DHT22;392;48.838;2.322;2024-02-04T03:47:08;11.30;68.70
820;DHT22;392;48.838;2.322;2024-02-04T03:49:37;11.30;68.80
820;DHT22;392;48.838;2.322;2024-02-04T03:52:04;11.30;68.80
820;DHT22;392;48.838;2.322;2024-02-04T03:54:32;11.40;68.80
820;DHT22;392;48.838;2.322;2024-02-04T03:56:59;11.30;69.00
820;DHT22;392;48.838;2.322;2024-02-04T03:59:26;11.30;69.30
820;DHT22;392;48.838;2.322;2024-02-04T04:01:53;11.40;69.30
820;DHT22;392;48.838;2.322;2024-02-04T04:04:21;11.40;69.50
820;DHT22;392;48.838;2.322;2024-02-04T04:06:49;11.40;69.70
820;DHT22;392;48.838;2.322;2024-02-04T04:09:16;11.40;69.70
820;DHT22;392;48.838;2.322;2024-02-04T04:11:44;11.40;70.10
820;DHT22;392;48.838;2.322;2024-02-04T04:14:11;11.40;70.10
820;DHT22;392;48.838;2.322;2024-02-04T04:16:38;11.40;70.00
820;DHT22;392;48.838;2.322;2024-02-04T04:19:05;11.40;70.00
820;DHT22;392;48.838;2.322;2024-02-04T04:21:32;11.40;70.10
820;DHT22;392;48.838;2.322;2024-02-04T04:24:02;11.40;70.00
820;DHT22;392;48.838;2.322;2024-02-04T04:26:29;11.40;70.00
820;DHT22;392;48.838;2.322;2024-02-04T04:28:57;11.40;69.90
820;DHT22;392;48.838;2.322;2024-02-04T04:31:24;11.40;69.80
820;DHT22;392;48.838;2.322;2024-02-04T04:33:51;11.50;70.50
820;DHT22;392;48.838;2.322;2024-02-04T04:36:19;11.50;70.20
820;DHT22;392;48.838;2.322;2024-02-04T04:38:46;11.50;69.60
820;DHT22;392;48.838;2.322;2024-02-04T04:41:17;11.50;68.90
820;DHT22;392;48.838;2.322;2024-02-04T04:43:44;11.50;68.90
820;DHT22;392;48.838;2.322;2024-02-04T04:46:11;11.40;68.90
820;DHT22;392;48.838;2.322;2024-02-04T04:48:38;11.40;69.40
820;DHT22;392;48.838;2.322;2024-02-04T04:51:07;11.40;70.00
820;DHT22;392;48.838;2.322;2024-02-04T04:53:35;11.50;70.00
820;DHT22;392;48.838;2.322;2024-02-04T04:56:03;11.50;69.80
820;DHT22;392;48.838;2.322;2024-02-04T04:58:35;11.50;69.70
820;DHT22;392;48.838;2.322;2024-02-04T05:01:02;11.50;70.30
820;DHT22;392;48.838;2.322;2024-02-04T05:03:29;11.50;70.10
820;DHT22;392;48.838;2.322;2024-02-04T05:05:56;11.50;69.30
820;DHT22;392;48.838;2.322;2024-02-04T05:08:24;11.50;68.90
820;DHT22;392;48.838;2.322;2024-02-04T05:10:51;11.50;68.90
820;DHT22;392;48.838;2.322;2024-02-04T05:13:18;11.50;68.90
820;DHT22;392;48.838;2.322;2024-02-04T05:15:46;11.50;68.90
820;DHT22;392;48.838;2.322;2024-02-04T05:18:14;11.50;68.70
820;DHT22;392;48.838;2.322;2024-02-04T05:20:41;11.50;68.80
820;DHT22;392;48.838;2.322;2024-02-04T05:23:09;11.50;68.70
820;DHT22;392;48.838;2.322;2024-02-04T05:25:37;11.50;68.50
820;DHT22;392;48.838;2.322;2024-02-04T05:28:04;11.50;68.90
820;DHT22;392;48.838;2.322;2024-02-04T05:30:33;11.50;68.70
820;DHT22;392;48.838;2.322;2024-02-04T05:33:02;11.50;68.70
820;DHT22;392;48.838;2.322;2024-02-04T05:35:29;11.50;68.80
820;DHT22;392;48.838;2.322;2024-02-04T05:37:56;11.50;68.40
820;DHT22;392;48.838;2.322;2024-02-04T05:40:24;11.40;68.40
820;DHT22;392;48.838;2.322;2024-02-04T05:42:51;11.50;68.90
820;DHT22;392;48.838;2.322;2024-02-04T05:45:18;11.50;68.90
820;DHT22;392;48.838;2.322;2024-02-04T05:47:45;11.40;68.80
820;DHT22;392;48.838;2.322;2024-02-04T05:50:14;11.40;68.80
820;DHT22;392;48.838;2.322;2024-02-04T05:52:41;11.40;69.00
820;DHT22;392;48.838;2.322;2024-02-04T05:55:10;11.40;68.80
820;DHT22;392;48.838;2.322;2024-02-04T05:57:37;11.40;69.10
820;DHT22;392;48.838;2.322;2024-02-04T06:00:05;11.40;69.40
820;DHT22;392;48.838;2.322;2024-02-04T06:02:35;11.40;69.70
820;DHT22;392;48.838;2.322;2024-02-04T06:05:02;11.40;69.70
820;DHT22;392;48.838;2.322;2024-02-04T06:07:31;11.40;69.60
820;DHT22;392;48.838;2.322;2024-02-04T06:09:58;11.40;69.70
820;DHT22;392;48.838;2.322;2024-02-04T06:12:28;11.40;69.80
820;DHT22;392;48.838;2.322;2024-02-04T06:14:56;11.40;69.60
820;DHT22;392;48.838;2.322;2024-02-04T06:17:23;11.40;69.60
820;DHT22;392;48.838;2.322;2024-02-04T06:19:50;11.40;70.00
820;DHT22;392;48.838;2.322;2024-02-04T06:22:17;11.30;69.80
820;DHT22;392;48.838;2.322;2024-02-04T06:24:46;11.30;69.90
820;DHT22;392;48.838;2.322;2024-02-04T06:27:13;11.30;70.10
820;DHT22;392;48.838;2.322;2024-02-04T06:29:39;11.30;70.30
820;DHT22;392;48.838;2.322;2024-02-04T06:32:06;11.30;71.10
820;DHT22;392;48.838;2.322;2024-02-04T06:34:33;11.30;70.60
820;DHT22;392;48.838;2.322;2024-02-04T06:37:01;11.30;70.60
820;DHT22;392;48.838;2.322;2024-02-04T06:39:28;11.30;71.50
820;DHT22;392;48.838;2.322;2024-02-04T06:41:57;11.30;70.80
820;DHT22;392;48.838;2.322;2024-02-04T06:44:24;11.30;70.30
820;DHT22;392;48.838;2.322;2024-02-04T06:46:51;11.30;70.00
820;DHT22;392;48.838;2.322;2024-02-04T06:49:18;11.30;69.70
820;DHT22;392;48.838;2.322;2024-02-04T06:51:46;11.30;69.70
820;DHT22;392;48.838;2.322;2024-02-04T06:54:14;11.30;69.40
820;DHT22;392;48.838;2.322;2024-02-04T06:56:41;11.30;69.50
820;DHT22;392;48.838;2.322;2024-02-04T06:59:09;11.30;69.70
820;DHT22;392;48.838;2.322;2024-02-04T07:01:37;11.30;69.50
820;DHT22;392;48.838;2.322;2024-02-04T07:04:04;11.30;69.30
820;DHT22;392;48.838;2.322;2024-02-04T07:06:31;11.30;69.60
820;DHT22;392;48.838;2.322;2024-02-04T07:08:58;11.20;69.50
820;DHT22;392;48.838;2.322;2024-02-04T07:11:26;11.20;69.70
820;DHT22;392;48.838;2.322;2024-02-04T07:13:53;11.20;70.00
820;DHT22;392;48.838;2.322;2024-02-04T07:16:26;11.20;69.90
820;DHT22;392;48.838;2.322;2024-02-04T07:18:54;11.20;69.70
820;DHT22;392;48.838;2.322;2024-02-04T07:21:21;11.20;70.00
820;DHT22;392;48.838;2.322;2024-02-04T07:23:49;11.20;70.60
820;DHT22;392;48.838;2.322;2024-02-04T07:26:16;11.20;70.80
820;DHT22;392;48.838;2.322;2024-02-04T07:28:43;11.10;71.00
820;DHT22;392;48.838;2.322;2024-02-04T07:31:10;11.10;71.10
820;DHT22;392;48.838;2.322;2024-02-04T07:33:39;11.10;71.40
820;DHT22;392;48.838;2.322;2024-02-04T07:36:07;11.10;71.50
820;DHT22;392;48.838;2.322;2024-02-04T07:38:34;11.10;71.80
820;DHT22;392;48.838;2.322;2024-02-04T07:41:02;11.20;72.00
820;DHT22;392;48.838;2.322;2024-02-04T07:43:29;11.20;72.10
820;DHT22;392;48.838;2.322;2024-02-04T07:45:56;11.10;72.20
820;DHT22;392;48.838;2.322;2024-02-04T07:48:23;11.10;72.40
820;DHT22;392;48.838;2.322;2024-02-04T07:50:52;11.10;72.40
820;DHT22;392;48.838;2.322;2024-02-04T07:53:19;11.10;72.20
820;DHT22;392;48.838;2.322;2024-02-04T07:55:47;11.20;72.90
820;DHT22;392;48.838;2.322;2024-02-04T07:58:15;11.20;73.40
820;DHT22;392;48.838;2.322;2024-02-04T08:00:43;11.20;73.10
820;DHT22;392;48.838;2.322;2024-02-04T08:03:10;11.20;73.40
820;DHT22;392;48.838;2.322;2024-02-04T08:05:37;11.20;73.70
820;DHT22;392;48.838;2.322;2024-02-04T08:08:06;11.20;73.80
820;DHT22;392;48.838;2.322;2024-02-04T08:10:33;11.20;73.80
820;DHT22;392;48.838;2.322;2024-02-04T08:13:00;11.20;73.70
820;DHT22;392;48.838;2.322;2024-02-04T08:15:27;11.20;73.60
820;DHT22;392;48.838;2.322;2024-02-04T08:17:55;11.20;73.40
820;DHT22;392;48.838;2.322;2024-02-04T08:20:22;11.30;73.50
820;DHT22;392;48.838;2.322;2024-02-04T08:22:49;11.30;73.20
820;DHT22;392;48.838;2.322;2024-02-04T08:25:18;11.30;73.20
820;DHT22;392;48.838;2.322;2024-02-04T08:27:45;11.30;73.90
820;DHT22;392;48.838;2.322;2024-02-04T08:30:13;11.30;73.20
820;DHT22;392;48.838;2.322;2024-02-04T08:32:40;11.30;73.20
820;DHT22;392;48.838;2.322;2024-02-04T08:35:07;11.30;73.20
820;DHT22;392;48.838;2.322;2024-02-04T08:37:35;11.30;73.20
820;DHT22;392;48.838;2.322;2024-02-04T08:40:04;11.40;73.30
820;DHT22;392;48.838;2.322;2024-02-04T08:42:34;11.40;73.10
820;DHT22;392;48.838;2.322;2024-02-04T08:45:01;11.40;73.20
820;DHT22;392;48.838;2.322;2024-02-04T08:47:28;11.40;73.30
820;DHT22;392;48.838;2.322;2024-02-04T08:49:55;11.40;73.30
820;DHT22;392;48.838;2.322;2024-02-04T08:52:23;11.40;73.20
820;DHT22;392;48.838;2.322;2024-02-04T08:54:50;11.40;73.30
820;DHT22;392;48.838;2.322;2024-02-04T08:57:18;11.40;73.10
820;DHT22;392;48.838;2.322;2024-02-04T08:59:46;11.50;73.40
820;DHT22;392;48.838;2.322;2024-02-04T09:02:14;11.50;73.40
820;DHT22;392;48.838;2.322;2024-02-04T09:04:41;11.50;73.40
820;DHT22;392;48.838;2.322;2024-02-04T09:07:08;11.60;73.00
820;DHT22;392;48.838;2.322;2024-02-04T09:09:35;11.60;72.60
820;DHT22;392;48.838;2.322;2024-02-04T09:12:03;11.70;71.70
820;DHT22;392;48.838;2.322;2024-02-04T09:14:31;11.70;70.50
820;DHT22;392;48.838;2.322;2024-02-04T09:17:02;11.70;69.90
820;DHT22;392;48.838;2.322;2024-02-04T09:19:31;11.80;69.20
820;DHT22;392;48.838;2.322;2024-02-04T09:21:58;11.80;67.80
820;DHT22;392;48.838;2.322;2024-02-04T09:24:27;11.80;66.50
820;DHT22;392;48.838;2.322;2024-02-04T09:26:54;11.80;65.40
820;DHT22;392;48.838;2.322;2024-02-04T09:29:21;11.80;64.60
820;DHT22;392;48.838;2.322;2024-02-04T09:31:49;11.70;64.50
820;DHT22;392;48.838;2.322;2024-02-04T09:34:19;11.80;64.50
820;DHT22;392;48.838;2.322;2024-02-04T09:36:46;11.80;64.10
820;DHT22;392;48.838;2.322;2024-02-04T09:39:13;11.80;64.40
820;DHT22;392;48.838;2.322;2024-02-04T09:41:40;11.80;64.60
820;DHT22;392;48.838;2.322;2024-02-04T09:44:08;11.80;64.10
820;DHT22;392;48.838;2.322;2024-02-04T09:46:35;11.90;64.30
820;DHT22;392;48.838;2.322;2024-02-04T09:49:03;12.00;63.70
820;DHT22;392;48.838;2.322;2024-02-04T09:51:32;12.00;62.90
820;DHT22;392;48.838;2.322;2024-02-04T09:54:04;12.00;61.90
820;DHT22;392;48.838;2.322;2024-02-04T09:56:33;12.10;61.30
820;DHT22;392;48.838;2.322;2024-02-04T09:59:01;12.00;60.20
820;DHT22;392;48.838;2.322;2024-02-04T10:01:29;12.00;60.20
820;DHT22;392;48.838;2.322;2024-02-04T10:03:56;12.10;61.40
820;DHT22;392;48.838;2.322;2024-02-04T10:06:24;12.20;62.60
820;DHT22;392;48.838;2.322;2024-02-04T10:08:52;12.40;62.10
820;DHT22;392;48.838;2.322;2024-02-04T10:11:20;12.50;61.70
820;DHT22;392;48.838;2.322;2024-02-04T10:13:48;12.70;60.80
820;DHT22;392;48.838;2.322;2024-02-04T10:16:17;12.80;58.90
820;DHT22;392;48.838;2.322;2024-02-04T10:18:44;12.80;56.50
820;DHT22;392;48.838;2.322;2024-02-04T10:21:16;12.80;54.70
820;DHT22;392;48.838;2.322;2024-02-04T10:23:45;12.80;52.60
820;DHT22;392;48.838;2.322;2024-02-04T10:26:14;12.80;53.40
820;DHT22;392;48.838;2.322;2024-02-04T10:28:41;12.90;57.20
820;DHT22;392;48.838;2.322;2024-02-04T10:31:08;12.90;59.70
820;DHT22;392;48.838;2.322;2024-02-04T10:33:36;12.90;59.30
820;DHT22;392;48.838;2.322;2024-02-04T10:36:04;12.90;58.60
820;DHT22;392;48.838;2.322;2024-02-04T10:38:32;13.00;59.80
820;DHT22;392;48.838;2.322;2024-02-04T10:41:00;13.10;60.10
820;DHT22;392;48.838;2.322;2024-02-04T10:43:32;13.20;60.30
820;DHT22;392;48.838;2.322;2024-02-04T10:46:02;13.20;60.10
820;DHT22;392;48.838;2.322;2024-02-04T10:48:36;13.30;60.20
820;DHT22;392;48.838;2.322;2024-02-04T10:51:12;13.30;58.90
820;DHT22;392;48.838;2.322;2024-02-04T10:53:41;13.30;57.20
820;DHT22;392;48.838;2.322;2024-02-04T10:56:19;13.30;54.20
820;DHT22;392;48.838;2.322;2024-02-04T10:58:52;13.30;51.90
820;DHT22;392;48.838;2.322;2024-02-04T11:01:19;13.30;48.50
820;DHT22;392;48.838;2.322;2024-02-04T11:03:48;13.20;46.40
820;DHT22;392;48.838;2.322;2024-02-04T11:06:18;13.10;46.20
820;DHT22;392;48.838;2.322;2024-02-04T11:08:45;12.90;46.40
820;DHT22;392;48.838;2.322;2024-02-04T11:11:13;12.90;47.20
820;DHT22;392;48.838;2.322;2024-02-04T11:13:43;12.90;47.60
820;DHT22;392;48.838;2.322;2024-02-04T11:16:22;12.80;48.20
820;DHT22;392;48.838;2.322;2024-02-04T11:19:11;12.90;50.40
820;DHT22;392;48.838;2.322;2024-02-04T11:22:24;13.00;51.30
820;DHT22;392;48.838;2.322;2024-02-04T11:25:17;13.20;49.00
820;DHT22;392;48.838;2.322;2024-02-04T11:27:52;13.20;46.90
820;DHT22;392;48.838;2.322;2024-02-04T11:30:20;13.20;48.00
820;DHT22;392;48.838;2.322;2024-02-04T11:32:48;13.30;48.40
820;DHT22;392;48.838;2.322;2024-02-04T11:35:16;13.40;47.70
820;DHT22;392;48.838;2.322;2024-02-04T11:37:46;13.60;46.90
820;DHT22;392;48.838;2.322;2024-02-04T11:40:14;13.70;44.20
820;DHT22;392;48.838;2.322;2024-02-04T11:42:42;13.80;42.50
820;DHT22;392;48.838;2.322;2024-02-04T11:45:12;13.70;40.30
820;DHT22;392;48.838;2.322;2024-02-04T11:47:40;13.60;40.10
820;DHT22;392;48.838;2.322;2024-02-04T11:50:08;13.50;41.10
820;DHT22;392;48.838;2.322;2024-02-04T11:52:36;13.40;42.10
820;DHT22;392;48.838;2.322;2024-02-04T11:55:05;13.30;42.00
820;DHT22;392;48.838;2.322;2024-02-04T11:57:33;13.10;43.00
820;DHT22;392;48.838;2.322;2024-02-04T12:00:01;12.90;44.50
820;DHT22;392;48.838;2.322;2024-02-04T12:02:36;12.80;46.00
820;DHT22;392;48.838;2.322;2024-02-04T12:05:04;12.70;47.10
820;DHT22;392;48.838;2.322;2024-02-04T12:07:32;12.60;47.50
820;DHT22;392;48.838;2.322;2024-02-04T12:09:58;12.60;48.30
820;DHT22;392;48.838;2.322;2024-02-04T12:12:27;12.70;49.60
820;DHT22;392;48.838;2.322;2024-02-04T12:14:56;12.80;48.40
820;DHT22;392;48.838;2.322;2024-02-04T12:17:23;12.90;46.20
820;DHT22;392;48.838;2.322;2024-02-04T12:19:51;13.00;45.00
820;DHT22;392;48.838;2.322;2024-02-04T12:22:19;13.00;43.90
820;DHT22;392;48.838;2.322;2024-02-04T12:24:46;13.00;43.20
820;DHT22;392;48.838;2.322;2024-02-04T12:27:16;12.90;43.50
820;DHT22;392;48.838;2.322;2024-02-04T12:29:45;12.80;44.80
820;DHT22;392;48.838;2.322;2024-02-04T12:32:13;12.60;45.80
820;DHT22;392;48.838;2.322;2024-02-04T12:34:46;12.60;46.70
820;DHT22;392;48.838;2.322;2024-02-04T12:37:13;12.50;47.90
820;DHT22;392;48.838;2.322;2024-02-04T12:39:40;12.40;48.50
820;DHT22;392;48.838;2.322;2024-02-04T12:42:08;12.40;49.10
820;DHT22;392;48.838;2.322;2024-02-04T12:44:35;12.30;50.00
820;DHT22;392;48.838;2.322;2024-02-04T12:47:05;12.30;50.90
820;DHT22;392;48.838;2.322;2024-02-04T12:49:33;12.30;51.40
820;DHT22;392;48.838;2.322;2024-02-04T12:52:05;12.30;52.20
820;DHT22;392;48.838;2.322;2024-02-04T12:54:40;12.30;52.50
820;DHT22;392;48.838;2.322;2024-02-04T12:57:08;12.40;52.70
820;DHT22;392;48.838;2.322;2024-02-04T12:59:37;12.60;51.20
820;DHT22;392;48.838;2.322;2024-02-04T13:02:07;12.60;49.60
820;DHT22;392;48.838;2.322;2024-02-04T13:04:35;12.60;48.80
820;DHT22;392;48.838;2.322;2024-02-04T13:07:06;12.60;48.00
820;DHT22;392;48.838;2.322;2024-02-04T13:09:35;12.60;48.00
820;DHT22;392;48.838;2.322;2024-02-04T13:12:03;12.50;49.00
820;DHT22;392;48.838;2.322;2024-02-04T13:14:30;12.50;48.60
820;DHT22;392;48.838;2.322;2024-02-04T13:16:58;12.50;48.30
820;DHT22;392;48.838;2.322;2024-02-04T13:19:32;12.50;47.80
820;DHT22;392;48.838;2.322;2024-02-04T13:22:00;12.50;47.50
820;DHT22;392;48.838;2.322;2024-02-04T13:24:28;12.50;47.20
820;DHT22;392;48.838;2.322;2024-02-04T13:26:55;12.40;47.30
820;DHT22;392;48.838;2.322;2024-02-04T13:29:22;12.40;47.70
820;DHT22;392;48.838;2.322;2024-02-04T13:31:49;12.40;48.50
820;DHT22;392;48.838;2.322;2024-02-04T13:34:17;12.40;50.00
820;DHT22;392;48.838;2.322;2024-02-04T13:36:46;12.30;48.70
820;DHT22;392;48.838;2.322;2024-02-04T13:39:13;12.30;48.20
820;DHT22;392;48.838;2.322;2024-02-04T13:41:44;12.30;48.30
820;DHT22;392;48.838;2.322;2024-02-04T13:44:11;12.30;48.20
820;DHT22;392;48.838;2.322;2024-02-04T13:46:39;12.30;47.80
820;DHT22;392;48.838;2.322;2024-02-04T13:49:08;12.30;47.70
820;DHT22;392;48.838;2.322;2024-02-04T13:51:37;12.30;48.00
820;DHT22;392;48.838;2.322;2024-02-04T13:54:06;12.30;48.10
820;DHT22;392;48.838;2.322;2024-02-04T13:56:34;12.30;48.10
820;DHT22;392;48.838;2.322;2024-02-04T13:59:02;12.30;48.20
820;DHT22;392;48.838;2.322;2024-02-04T14:01:29;12.30;48.40
820;DHT22;392;48.838;2.322;2024-02-04T14:03:56;12.20;48.60
820;DHT22;392;48.838;2.322;2024-02-04T14:06:23;12.20;48.90
820;DHT22;392;48.838;2.322;2024-02-04T14:08:50;12.20;49.20
820;DHT22;392;48.838;2.322;2024-02-04T14:11:19;12.20;49.30
820;DHT22;392;48.838;2.322;2024-02-04T14:13:46;12.20;49.50
820;DHT22;392;48.838;2.322;2024-02-04T14:16:14;12.20;49.40
820;DHT22;392;48.838;2.322;2024-02-04T14:18:42;12.10;49.10
820;DHT22;392;48.838;2.322;2024-02-04T14:21:12;12.10;49.50
820;DHT22;392;48.838;2.322;2024-02-04T14:23:40;12.00;50.30
820;DHT22;392;48.838;2.322;2024-02-04T14:26:16;12.00;50.80
820;DHT22;392;48.838;2.322;2024-02-04T14:28:44;12.00;50.60
820;DHT22;392;48.838;2.322;2024-02-04T14:31:12;12.00;51.10
820;DHT22;392;48.838;2.322;2024-02-04T14:33:43;12.00;51.80
820;DHT22;392;48.838;2.322;2024-02-04T14:36:15;12.00;51.90
820;DHT22;392;48.838;2.322;2024-02-04T14:38:42;11.90;52.10
820;DHT22;392;48.838;2.322;2024-02-04T14:41:10;11.90;52.30
820;DHT22;392;48.838;2.322;2024-02-04T14:43:40;11.90;52.80
820;DHT22;392;48.838;2.322;2024-02-04T14:46:08;11.80;53.50
820;DHT22;392;48.838;2.322;2024-02-04T14:48:36;11.90;53.90
820;DHT22;392;48.838;2.322;2024-02-04T14:51:04;11.90;54.00
820;DHT22;392;48.838;2.322;2024-02-04T14:53:32;11.80;54.20
820;DHT22;392;48.838;2.322;2024-02-04T14:55:59;11.80;54.40
820;DHT22;392;48.838;2.322;2024-02-04T14:58:26;11.90;54.90
820;DHT22;392;48.838;2.322;2024-02-04T15:00:54;11.90;54.90
820;DHT22;392;48.838;2.322;2024-02-04T15:03:23;11.90;54.40
820;DHT22;392;48.838;2.322;2024-02-04T15:05:50;11.90;54.20
820;DHT22;392;48.838;2.322;2024-02-04T15:08:20;12.00;54.90
820;DHT22;392;48.838;2.322;2024-02-04T15:10:47;12.00;53.90
820;DHT22;392;48.838;2.322;2024-02-04T15:13:15;12.10;53.50
820;DHT22;392;48.838;2.322;2024-02-04T15:15:43;12.10;53.20
820;DHT22;392;48.838;2.322;2024-02-04T15:18:11;12.10;52.30
820;DHT22;392;48.838;2.322;2024-02-04T15:20:41;12.20;51.70
820;DHT22;392;48.838;2.322;2024-02-04T15:23:09;12.20;51.00
820;DHT22;392;48.838;2.322;2024-02-04T15:25:37;12.10;50.70
820;DHT22;392;48.838;2.322;2024-02-04T15:28:06;12.10;50.70
820;DHT22;392;48.838;2.322;2024-02-04T15:30:35;12.10;50.80
820;DHT22;392;48.838;2.322;2024-02-04T15:33:03;12.20;50.90
820;DHT22;392;48.838;2.322;2024-02-04T15:35:32;12.20;51.10
820;DHT22;392;48.838;2.322;2024-02-04T15:38:01;12.20;50.90
820;DHT22;392;48.838;2.322;2024-02-04T15:40:29;12.20;50.90
820;DHT22;392;48.838;2.322;2024-02-04T15:42:56;12.20;51.10
820;DHT22;392;48.838;2.322;2024-02-04T15:45:23;12.20;50.80
820;DHT22;392;48.838;2.322;2024-02-04T15:47:51;12.20;50.90
820;DHT22;392;48.838;2.322;2024-02-04T15:50:20;12.10;51.90
820;DHT22;392;48.838;2.322;2024-02-04T15:52:49;12.10;50.70
820;DHT22;392;48.838;2.322;2024-02-04T15:55:19;12.10;51.00
820;DHT22;392;48.838;2.322;2024-02-04T15:57:49;12.10;51.10
820;DHT22;392;48.838;2.322;2024-02-04T16:00:21;12.10;52.00
820;DHT22;392;48.838;2.322;2024-02-04T16:02:52;12.10;51.30
820;DHT22;392;48.838;2.322;2024-02-04T16:05:20;12.10;51.20
820;DHT22;392;48.838;2.322;2024-02-04T16:07:49;12.00;51.30
820;DHT22;392;48.838;2.322;2024-02-04T16:10:19;12.00;51.70
820;DHT22;392;48.838;2.322;2024-02-04T16:12:53;12.00;52.10
820;DHT22;392;48.838;2.322;2024-02-04T16:15:23;12.00;52.20
820;DHT22;392;48.838;2.322;2024-02-04T16:17:51;11.90;52.40
820;DHT22;392;48.838;2.322;2024-02-04T16:20:19;12.00;52.30
820;DHT22;392;48.838;2.322;2024-02-04T16:22:47;11.90;52.10
820;DHT22;392;48.838;2.322;2024-02-04T16:25:16;12.00;52.40
820;DHT22;392;48.838;2.322;2024-02-04T16:27:46;12.00;52.60
820;DHT22;392;48.838;2.322;2024-02-04T16:30:13;12.00;52.20
820;DHT22;392;48.838;2.322;2024-02-04T16:32:42;12.00;51.90
820;DHT22;392;48.838;2.322;2024-02-04T16:35:10;12.00;51.70
820;DHT22;392;48.838;2.322;2024-02-04T16:37:37;12.00;51.20
820;DHT22;392;48.838;2.322;2024-02-04T16:40:08;11.90;51.50
820;DHT22;392;48.838;2.322;2024-02-04T16:42:38;11.90;51.90